• Join FlightAware (Why Join?)
  • Login
  • US Flag 
09:57AM EDT


 

Airport Tracker/Info


-or-


 

Live Flight TrackerFlight Track Log ✈ SWA2970 ✈ 09-Aug-2013 ✈ KPHX - KOAK

Flight Track Log - Related Links

Times and Time Zones

All times are in EDT time to prevent confusion due to time zone crossing. See the SWA2970 flight status page for this flight to view local times or setup timezone preferences in your user account.

Time Position Orientation Groundspeed Altitude Reporting Facility
EDT Latitude Longitude Course Direction KTS MPH feet Rate Location/Type
12:51AM 33.4333 -112.0333 248° West 166 191 1,700  Level Phoenix TRACON
12:52AM 33.4167 -112.0833 248° West 206 237 3,200 1,740 Climbing Phoenix TRACON
12:53AM 33.4014 -112.1511 255° West 234 269 4,900 2,280 Climbing Albuquerque Center
12:54AM 33.3953 -112.2419 265° West 282 325 7,600 2,700 Climbing Albuquerque Center
12:55AM 33.4047 -112.3386 277° West 292 336 10,400 2,460 Climbing Albuquerque Center
12:56AM 33.4156 -112.4511 277° West 337 388 12,700 2,340 Climbing Albuquerque Center
12:57AM 33.4275 -112.5703 277° West 357 411 15,200 2,700 Climbing Albuquerque Center
12:58AM 33.4411 -112.6933 278° West 364 419 18,200 2,340 Climbing Albuquerque Center
12:59AM 33.4525 -112.8150 276° West 367 422 20,000 2,100 Climbing Albuquerque Center
01:00AM 33.4758 -112.9408 283° West 381 438 22,500 2,100 Climbing Albuquerque Center
01:01AM 33.5000 -113.0675 283° West 386 444 24,300 1,800 Climbing Albuquerque Center
01:02AM 33.5256 -113.1989 283° West 394 453 26,200 1,920 Climbing Albuquerque Center
01:03AM 33.5508 -113.3322 283° West 402 463 28,200 1,500 Climbing Albuquerque Center
01:04AM 33.5756 -113.4672 282° West 409 471 29,300 1,320 Climbing Albuquerque Center
01:05AM 33.6019 -113.6067 283° West 422 486 30,900 1,620 Climbing Albuquerque Center
01:06AM 33.6286 -113.7472 283° West 427 491 32,600 1,620 Climbing Albuquerque Center
01:07AM 33.6528 -113.8836 282° West 421 484 34,200 1,260 Climbing Albuquerque Center
01:08AM 33.6775 -114.0178 283° West 416 479 35,200 900 Climbing Albuquerque Center
01:09AM 33.7417 -114.1678 297° West 433 498 36,100 420 Climbing Albuquerque Center
01:10AM 33.8000 -114.2900 300° West 429 494 36,100  Level Albuquerque Center
01:11AM 33.8600 -114.4117 301° West 427 491 36,100  Level Albuquerque Center
01:12AM 33.9200 -114.5358 300° West 428 493 36,100  Level Albuquerque Center
01:13AM 33.9950 -114.6867 301° West 425 489 36,100  Level Los Angeles Center
01:14AM 34.0550 -114.8108 300° West 429 494 36,100  Level Los Angeles Center
01:15AM 34.1150 -114.9336 301° West 427 491 36,100  Level Los Angeles Center
01:16AM 34.1725 -115.0542 300° West 420 483 36,100  Level Los Angeles Center
01:17AM 34.2314 -115.1775 300° West 424 488 36,100  Level Los Angeles Center
01:18AM 34.2908 -115.2992 301° West 423 487 36,100  Level Los Angeles Center
01:19AM 34.3489 -115.4225 300° West 423 487 36,100  Level Los Angeles Center
01:20AM 34.4067 -115.5444 300° West 421 484 36,100  Level Los Angeles Center
01:21AM 34.4664 -115.6689 300° West 422 486 36,100  Level Los Angeles Center
01:22AM 34.5361 -115.8175 300° West 424 488 36,100  Level Los Angeles Center
01:23AM 34.5961 -115.9414 300° West 425 489 36,100  Level Los Angeles Center
01:24AM 34.6531 -116.0669 299° West 425 489 36,100  Level Los Angeles Center
01:25AM 34.7117 -116.1894 300° West 422 486 36,100  Level Los Angeles Center
01:26AM 34.7686 -116.3164 299° West 427 491 36,100  Level Los Angeles Center
01:28AM 34.8278 -116.4383 301° West 421 484 36,100  Level Los Angeles Center
01:29AM 34.8842 -116.5625 299° West 420 483 36,100  Level Los Angeles Center
01:30AM 34.9414 -116.6861 299° West 420 483 36,100  Level Los Angeles Center
01:31AM 34.9981 -116.8086 299° West 418 481 36,100  Level Los Angeles Center
01:32AM 35.0656 -116.9558 299° West 417 480 36,100  Level Los Angeles Center
01:33AM 35.1214 -117.0789 299° West 417 480 36,100  Level Los Angeles Center
01:34AM 35.1781 -117.2019 299° West 418 481 36,100  Level Los Angeles Center
01:35AM 35.2358 -117.3269 300° West 423 487 36,100  Level Los Angeles Center
01:36AM 35.2928 -117.4514 299° West 424 488 36,100  Level Los Angeles Center
01:37AM 35.3492 -117.5769 299° West 426 490 36,100  Level Los Angeles Center
01:38AM 35.4153 -117.7289 298° West 427 491 36,100  Level Los Angeles Center
01:39AM 35.4722 -117.8547 299° West 426 490 36,100  Level Los Angeles Center
01:40AM 35.5283 -117.9806 299° West 423 487 36,100  Level Los Angeles Center
01:41AM 35.5847 -118.1086 298° West 425 489 36,100  Level Los Angeles Center
01:42AM 35.6408 -118.2361 298° West 426 490 36,100  Level Los Angeles Center
01:43AM 35.6964 -118.3642 298° West 425 489 36,100  Level Los Angeles Center
01:44AM 35.7531 -118.4922 299° West 426 490 36,100  Level Los Angeles Center
01:45AM 35.8172 -118.6414 298° West 425 489 36,100  Level Los Angeles Center
01:46AM 35.8736 -118.7714 298° West 427 491 36,100  Level Los Angeles Center
01:47AM 35.9400 -118.9261 298° West 428 493 36,100 -60 Level Los Angeles Center
01:48AM 35.9956 -119.0536 298° West 426 490 36,000 -60 Descending Los Angeles Center
01:49AM 36.0481 -119.1783 298° West 419 482 36,000  Level Oakland Center
01:50AM 36.1017 -119.3056 298° West 419 482 36,100  Climbing Oakland Center
01:51AM 36.1556 -119.4331 298° West 420 483 36,100  Level Oakland Center
01:52AM 36.2092 -119.5600 298° West 419 482 36,100  Level Oakland Center
01:53AM 36.2633 -119.6881 298° West 420 483 36,100 -60 Level Oakland Center
01:54AM 36.3169 -119.8147 298° West 419 482 36,000 -600 Descending Oakland Center
01:55AM 36.3697 -119.9444 297° West 421 484 35,000 -1,020 Descending Oakland Center
01:56AM 36.4233 -120.0711 298° West 420 483 34,000 -480 Descending Oakland Center
01:57AM 36.4767 -120.1983 298° West 418 481 34,100  Climbing Oakland Center
01:58AM 36.5306 -120.3283 297° West 423 487 34,100 -300 Level Oakland Center
01:59AM 36.5950 -120.4858 297° West 428 493 33,500 -1,680 Descending Oakland Center
02:00AM 36.6486 -120.6156 297° West 425 489 30,800 -2,700 Descending Oakland Center
02:01AM 36.7022 -120.7467 297° West 426 490 28,100 -2,580 Descending Oakland Center
02:02AM 36.7753 -120.8542 310° West 416 479 25,600 -2,520 Descending Oakland Center
02:03AM 36.8625 -120.9508 318° Northwest 402 463 23,000 -2,520 Descending Oakland Center
02:04AM 36.9425 -121.0414 318° Northwest 389 448 20,600 -2,400 Descending Oakland Center
02:05AM 37.0197 -121.1303 317° Northwest 378 435 18,200 -2,340 Descending Oakland Center
02:06AM 37.0936 -121.2167 317° Northwest 365 420 15,900 -2,220 Descending Oakland Center
02:07AM 37.1656 -121.2986 318° Northwest 350 403 13,700 -2,220 Descending Oakland Center
02:08AM 37.2353 -121.3794 317° Northwest 343 395 11,500 -1,860 Descending Oakland Center
02:09AM 37.3017 -121.4572 317° Northwest 329 379 10,000 -1,440 Descending Oakland Center
02:10AM 37.3547 -121.5192 317° Northwest 300 345 8,600 -1,560 Descending Oakland Center
02:11AM 37.4000 -121.5667 320° Northwest 282 325 7,600 -1,500 Descending Northern Cal TRACON
02:12AM 37.4500 -121.6333 313° West 270 311 6,300 -780 Descending Northern Cal TRACON
02:13AM 37.5000 -121.7000 313° West 273 314 6,100 -240 Descending Northern Cal TRACON
02:14AM 37.5167 -121.8000 282° West 262 302 5,900 -840 Descending Northern Cal TRACON
02:15AM 37.5333 -121.8833 284° West 249 287 4,400 -900 Descending Northern Cal TRACON
02:16AM 37.5500 -121.9667 284° West 221 254 4,100 -480 Descending Northern Cal TRACON
02:17AM 37.5667 -122.0167 293° West 216 249 3,500 -660 Descending Northern Cal TRACON
02:18AM 37.6167 -122.0833 313° West 178 205 2,900 -780 Descending Northern Cal TRACON
02:19AM 37.6333 -122.1167 302° West 138 159 2,000 -840 Descending Northern Cal TRACON
02:20AM 37.6667 -122.1500 322° Northwest 128 147 1,300 -660 Descending Northern Cal TRACON
02:21AM 37.6833 -122.1833 302° West 124 143 700 -600 Descending Northern Cal TRACON
02:22AM 37.7000 -122.2167 302° West 125 144 200 -600 Descending Northern Cal TRACON
02:24AM 37.7167 -122.2167 270° West  Level FlightAware Approximate
02:31AM 37.7213 -122.2207 270° West  Level Estimated